sensor_id;sensor_type;location;lat;lon;timestamp;pressure;altitude;pressure_sealevel;temperature;humidity
20825;BME280;10573;50.936;6.978;2022-07-29T00:02:09;101084.38;;;22.11;41.57
20825;BME280;10573;50.936;6.978;2022-07-29T00:04:35;101077.16;;;22.10;41.58
20825;BME280;10573;50.936;6.978;2022-07-29T00:07:01;101069.22;;;22.07;41.36
20825;BME280;10573;50.936;6.978;2022-07-29T00:09:27;101080.97;;;22.23;41.32
20825;BME280;10573;50.936;6.978;2022-07-29T00:11:53;101082.69;;;22.31;41.14
20825;BME280;10573;50.936;6.978;2022-07-29T00:14:20;101075.81;;;22.26;41.18
20825;BME280;10573;50.936;6.978;2022-07-29T00:16:45;101076.03;;;22.25;41.29
20825;BME280;10573;50.936;6.978;2022-07-29T00:19:11;101069.44;;;22.26;41.74
20825;BME280;10573;50.936;6.978;2022-07-29T00:21:36;101062.16;;;22.25;41.54
20825;BME280;10573;50.936;6.978;2022-07-29T00:24:01;101055.34;;;22.21;41.98
20825;BME280;10573;50.936;6.978;2022-07-29T00:26:27;101055.34;;;22.07;42.33
20825;BME280;10573;50.936;6.978;2022-07-29T00:28:58;101056.84;;;22.10;42.80
20825;BME280;10573;50.936;6.978;2022-07-29T00:31:23;101054.28;;;22.08;42.33
20825;BME280;10573;50.936;6.978;2022-07-29T00:33:48;101048.97;;;22.13;42.66
20825;BME280;10573;50.936;6.978;2022-07-29T00:36:14;101059.19;;;22.20;42.65
20825;BME280;10573;50.936;6.978;2022-07-29T00:38:39;101049.16;;;22.25;42.46
20825;BME280;10573;50.936;6.978;2022-07-29T00:41:09;101053.63;;;22.20;42.36
20825;BME280;10573;50.936;6.978;2022-07-29T00:43:35;101050.00;;;22.19;42.74
20825;BME280;10573;50.936;6.978;2022-07-29T00:46:00;101045.75;;;22.17;42.99
20825;BME280;10573;50.936;6.978;2022-07-29T00:48:26;101042.13;;;22.16;43.46
20825;BME280;10573;50.936;6.978;2022-07-29T00:50:51;101035.31;;;22.12;43.70
20825;BME280;10573;50.936;6.978;2022-07-29T00:53:16;101033.81;;;21.96;43.54
20825;BME280;10573;50.936;6.978;2022-07-29T00:55:42;101028.06;;;21.91;43.41
20825;BME280;10573;50.936;6.978;2022-07-29T00:58:08;101030.19;;;21.89;43.55
20825;BME280;10573;50.936;6.978;2022-07-29T01:00:33;101021.00;;;22.02;43.58
20825;BME280;10573;50.936;6.978;2022-07-29T01:02:59;101023.34;;;22.05;43.99
20825;BME280;10573;50.936;6.978;2022-07-29T01:05:26;101016.94;;;21.98;43.79
20825;BME280;10573;50.936;6.978;2022-07-29T01:07:54;101011.84;;;21.94;44.17
20825;BME280;10573;50.936;6.978;2022-07-29T01:10:20;101014.41;;;21.89;44.47
20825;BME280;10573;50.936;6.978;2022-07-29T01:12:47;101009.91;;;21.82;44.53
20825;BME280;10573;50.936;6.978;2022-07-29T01:15:14;101015.25;;;21.90;44.64
20825;BME280;10573;50.936;6.978;2022-07-29T01:17:45;101007.13;;;21.95;44.38
20825;BME280;10573;50.936;6.978;2022-07-29T01:23:46;101002.25;;;21.97;44.55
20825;BME280;10573;50.936;6.978;2022-07-29T01:28:56;100997.75;;;21.96;44.22
20825;BME280;10573;50.936;6.978;2022-07-29T01:31:30;100991.97;;;22.11;43.85
20825;BME280;10573;50.936;6.978;2022-07-29T01:34:03;100993.69;;;21.99;44.53
20825;BME280;10573;50.936;6.978;2022-07-29T01:36:42;100991.34;;;21.89;44.84
20825;BME280;10573;50.936;6.978;2022-07-29T01:39:19;100994.13;;;21.89;44.22
20825;BME280;10573;50.936;6.978;2022-07-29T01:41:54;100985.16;;;21.87;44.53
20825;BME280;10573;50.936;6.978;2022-07-29T01:44:34;100986.88;;;21.94;44.07
20825;BME280;10573;50.936;6.978;2022-07-29T01:47:10;100984.09;;;21.88;43.96
20825;BME280;10573;50.936;6.978;2022-07-29T01:49:41;100984.09;;;21.94;43.26
20825;BME280;10573;50.936;6.978;2022-07-29T01:52:19;100996.03;;;21.88;43.78
20825;BME280;10573;50.936;6.978;2022-07-29T01:54:50;100994.78;;;21.77;43.49
20825;BME280;10573;50.936;6.978;2022-07-29T01:57:18;100979.41;;;21.68;44.11
20825;BME280;10573;50.936;6.978;2022-07-29T01:59:47;100986.69;;;21.62;43.33
20825;BME280;10573;50.936;6.978;2022-07-29T02:02:18;100985.63;;;21.77;43.21
20825;BME280;10573;50.936;6.978;2022-07-29T02:04:44;100991.56;;;21.81;43.25
20825;BME280;10573;50.936;6.978;2022-07-29T02:07:17;100989.22;;;21.77;43.39
20825;BME280;10573;50.936;6.978;2022-07-29T02:09:43;100986.03;;;21.81;43.20
20825;BME280;10573;50.936;6.978;2022-07-29T02:12:11;100976.41;;;21.76;43.91
20825;BME280;10573;50.936;6.978;2022-07-29T02:14:42;100975.13;;;21.86;43.75
20825;BME280;10573;50.936;6.978;2022-07-29T02:17:10;100974.31;;;21.78;43.51
20825;BME280;10573;50.936;6.978;2022-07-29T02:19:38;100975.59;;;21.69;43.79
20825;BME280;10573;50.936;6.978;2022-07-29T02:22:05;100976.38;;;21.50;44.30
20825;BME280;10573;50.936;6.978;2022-07-29T02:24:32;100974.03;;;21.46;44.69
20825;BME280;10573;50.936;6.978;2022-07-29T02:27:00;100970.66;;;21.58;43.77
20825;BME280;10573;50.936;6.978;2022-07-29T02:29:28;100975.59;;;21.56;43.84
20825;BME280;10573;50.936;6.978;2022-07-29T02:31:56;100971.06;;;21.41;44.45
20825;BME280;10573;50.936;6.978;2022-07-29T02:34:24;100970.00;;;21.42;44.52
20825;BME280;10573;50.936;6.978;2022-07-29T02:36:50;100970.84;;;21.36;44.66
20825;BME280;10573;50.936;6.978;2022-07-29T02:39:17;100974.25;;;21.38;44.66
20825;BME280;10573;50.936;6.978;2022-07-29T02:41:48;100975.94;;;21.12;45.13
20825;BME280;10573;50.936;6.978;2022-07-29T02:44:18;100976.16;;;21.11;45.29
20825;BME280;10573;50.936;6.978;2022-07-29T02:47:09;100971.88;;;21.08;45.31
20825;BME280;10573;50.936;6.978;2022-07-29T02:49:38;100985.50;;;21.10;45.17
20825;BME280;10573;50.936;6.978;2022-07-29T02:52:23;100983.16;;;21.13;45.25
20825;BME280;10573;50.936;6.978;2022-07-29T02:58:05;100994.91;;;21.16;45.25
20825;BME280;10573;50.936;6.978;2022-07-29T03:00:36;100992.38;;;21.27;45.40
20825;BME280;10573;50.936;6.978;2022-07-29T03:03:06;100994.25;;;21.27;44.59
20825;BME280;10573;50.936;6.978;2022-07-29T03:05:32;101002.81;;;21.32;44.24
20825;BME280;10573;50.936;6.978;2022-07-29T03:08:02;101009.22;;;21.33;44.09
20825;BME280;10573;50.936;6.978;2022-07-29T03:10:30;101011.78;;;21.34;44.04
20825;BME280;10573;50.936;6.978;2022-07-29T03:12:56;101011.34;;;21.37;43.46
20825;BME280;10573;50.936;6.978;2022-07-29T03:15:22;101017.72;;;21.31;44.69
20825;BME280;10573;50.936;6.978;2022-07-29T03:17:49;101023.72;;;21.41;44.19
20825;BME280;10573;50.936;6.978;2022-07-29T03:20:14;101019.03;;;21.35;45.19
20825;BME280;10573;50.936;6.978;2022-07-29T03:22:41;101015.19;;;21.36;45.27
20825;BME280;10573;50.936;6.978;2022-07-29T03:25:14;101011.75;;;21.27;45.54
20825;BME280;10573;50.936;6.978;2022-07-29T03:27:41;101017.03;;;21.02;46.28
20825;BME280;10573;50.936;6.978;2022-07-29T03:30:08;101016.31;;;20.87;47.07
20825;BME280;10573;50.936;6.978;2022-07-29T03:32:35;101012.91;;;20.85;47.25
20825;BME280;10573;50.936;6.978;2022-07-29T03:35:00;101014.63;;;20.86;47.63
20825;BME280;10573;50.936;6.978;2022-07-29T03:37:26;101024.19;;;20.83;47.75
20825;BME280;10573;50.936;6.978;2022-07-29T03:39:55;101014.63;;;20.86;47.65
20825;BME280;10573;50.936;6.978;2022-07-29T03:42:24;101020.34;;;20.77;48.10
20825;BME280;10573;50.936;6.978;2022-07-29T03:44:51;101022.03;;;20.43;49.02
20825;BME280;10573;50.936;6.978;2022-07-29T03:47:20;101025.56;;;20.59;48.63
20825;BME280;10573;50.936;6.978;2022-07-29T03:49:50;101022.59;;;20.67;48.32
20825;BME280;10573;50.936;6.978;2022-07-29T03:52:17;101024.97;;;20.35;48.91
20825;BME280;10573;50.936;6.978;2022-07-29T03:54:43;101027.97;;;20.34;49.06
20825;BME280;10573;50.936;6.978;2022-07-29T03:57:11;101020.91;;;20.31;49.11
20825;BME280;10573;50.936;6.978;2022-07-29T03:59:37;101018.94;;;20.25;49.14
20825;BME280;10573;50.936;6.978;2022-07-29T04:02:04;101022.88;;;20.37;48.90
20825;BME280;10573;50.936;6.978;2022-07-29T04:04:34;101023.28;;;20.06;49.36
20825;BME280;10573;50.936;6.978;2022-07-29T04:07:00;101023.72;;;20.38;48.70
20825;BME280;10573;50.936;6.978;2022-07-29T04:09:26;101029.38;;;20.23;48.46
20825;BME280;10573;50.936;6.978;2022-07-29T04:11:51;101033.63;;;20.19;48.50
20825;BME280;10573;50.936;6.978;2022-07-29T04:14:18;101036.41;;;20.25;48.13
20825;BME280;10573;50.936;6.978;2022-07-29T04:16:43;101030.09;;;20.03;48.59
20825;BME280;10573;50.936;6.978;2022-07-29T04:19:09;101031.72;;;20.26;48.20
20825;BME280;10573;50.936;6.978;2022-07-29T04:21:41;101042.44;;;20.07;48.50
20825;BME280;10573;50.936;6.978;2022-07-29T04:24:07;101032.22;;;20.01;48.93
20825;BME280;10573;50.936;6.978;2022-07-29T04:26:34;101032.22;;;19.79;48.66
20825;BME280;10573;50.936;6.978;2022-07-29T04:28:59;101027.47;;;19.95;48.57
20825;BME280;10573;50.936;6.978;2022-07-29T04:31:25;101031.22;;;20.09;48.47
20825;BME280;10573;50.936;6.978;2022-07-29T04:33:50;101034.16;;;20.07;48.48
20825;BME280;10573;50.936;6.978;2022-07-29T04:36:16;101030.75;;;20.05;48.31
20825;BME280;10573;50.936;6.978;2022-07-29T04:38:41;101025.53;;;19.89;48.25
20825;BME280;10573;50.936;6.978;2022-07-29T04:41:06;101034.16;;;20.07;47.82
20825;BME280;10573;50.936;6.978;2022-07-29T04:43:34;101039.78;;;20.21;47.40
20825;BME280;10573;50.936;6.978;2022-07-29T04:46:00;101037.69;;;20.23;47.19
20825;BME280;10573;50.936;6.978;2022-07-29T04:48:26;101037.59;;;20.09;47.83
20825;BME280;10573;50.936;6.978;2022-07-29T04:50:51;101037.84;;;19.86;47.90
20825;BME280;10573;50.936;6.978;2022-07-29T04:53:17;101041.50;;;19.93;48.14
20825;BME280;10573;50.936;6.978;2022-07-29T04:55:43;101042.22;;;20.02;47.75
20825;BME280;10573;50.936;6.978;2022-07-29T04:58:09;101047.28;;;19.99;47.72
20825;BME280;10573;50.936;6.978;2022-07-29T05:00:34;101051.66;;;20.15;47.80
20825;BME280;10573;50.936;6.978;2022-07-29T05:03:00;101050.56;;;20.09;47.68
20825;BME280;10573;50.936;6.978;2022-07-29T05:05:25;101053.03;;;19.97;48.16
20825;BME280;10573;50.936;6.978;2022-07-29T05:07:51;101048.66;;;20.09;47.66
20825;BME280;10573;50.936;6.978;2022-07-29T05:10:16;101058.56;;;19.97;47.56
20825;BME280;10573;50.936;6.978;2022-07-29T05:12:41;101054.28;;;20.23;46.98
20825;BME280;10573;50.936;6.978;2022-07-29T05:15:07;101053.63;;;20.21;46.93
20825;BME280;10573;50.936;6.978;2022-07-29T05:17:33;101059.19;;;19.99;47.12
20825;BME280;10573;50.936;6.978;2022-07-29T05:19:58;101068.53;;;19.98;47.08
20825;BME280;10573;50.936;6.978;2022-07-29T05:22:24;101061.13;;;19.99;46.92
20825;BME280;10573;50.936;6.978;2022-07-29T05:24:50;101059.41;;;20.26;46.49
20825;BME280;10573;50.936;6.978;2022-07-29T05:27:15;101065.13;;;20.24;46.70
20825;BME280;10573;50.936;6.978;2022-07-29T05:29:41;101064.34;;;20.02;46.81
20825;BME280;10573;50.936;6.978;2022-07-29T05:32:06;101072.75;;;19.94;46.95
20825;BME280;10573;50.936;6.978;2022-07-29T05:34:31;101068.78;;;20.32;46.66
20825;BME280;10573;50.936;6.978;2022-07-29T05:36:57;101059.00;;;20.29;46.30
20825;BME280;10573;50.936;6.978;2022-07-29T05:39:23;101065.97;;;20.25;46.77
20825;BME280;10573;50.936;6.978;2022-07-29T05:41:48;101074.91;;;20.55;46.30
20825;BME280;10573;50.936;6.978;2022-07-29T05:44:14;101073.59;;;20.44;46.11
20825;BME280;10573;50.936;6.978;2022-07-29T05:46:41;101083.50;;;20.67;45.73
20825;BME280;10573;50.936;6.978;2022-07-29T05:49:06;101095.38;;;20.26;46.51
20825;BME280;10573;50.936;6.978;2022-07-29T05:51:33;101102.81;;;20.54;46.84
20825;BME280;10573;50.936;6.978;2022-07-29T05:53:58;101105.38;;;20.90;46.04
20825;BME280;10573;50.936;6.978;2022-07-29T05:56:24;101110.34;;;20.95;46.17
20825;BME280;10573;50.936;6.978;2022-07-29T05:58:50;101113.53;;;20.99;45.93
20825;BME280;10573;50.936;6.978;2022-07-29T06:01:15;101120.41;;;21.16;45.31
20825;BME280;10573;50.936;6.978;2022-07-29T06:03:41;101124.38;;;20.65;45.96
20825;BME280;10573;50.936;6.978;2022-07-29T06:06:07;101128.81;;;20.88;46.18
20825;BME280;10573;50.936;6.978;2022-07-29T06:08:33;101128.75;;;21.23;45.29
20825;BME280;10573;50.936;6.978;2022-07-29T06:11:00;101132.78;;;21.13;45.78
20825;BME280;10573;50.936;6.978;2022-07-29T06:13:25;101124.38;;;21.42;44.95
20825;BME280;10573;50.936;6.978;2022-07-29T06:15:51;101124.81;;;21.52;44.34
20825;BME280;10573;50.936;6.978;2022-07-29T06:18:16;101126.78;;;21.58;45.22
20825;BME280;10573;50.936;6.978;2022-07-29T06:20:42;101124.88;;;21.59;44.60
20825;BME280;10573;50.936;6.978;2022-07-29T06:23:07;101138.09;;;21.57;44.74
20825;BME280;10573;50.936;6.978;2022-07-29T06:25:33;101135.34;;;21.64;45.22
20825;BME280;10573;50.936;6.978;2022-07-29T06:28:00;101144.84;;;21.48;44.43
20825;BME280;10573;50.936;6.978;2022-07-29T06:30:26;101146.06;;;21.32;45.27
20825;BME280;10573;50.936;6.978;2022-07-29T06:32:52;101150.16;;;21.42;45.35
20825;BME280;10573;50.936;6.978;2022-07-29T06:35:17;101142.91;;;21.41;45.12
20825;BME280;10573;50.936;6.978;2022-07-29T06:37:43;101143.16;;;21.46;44.99
20825;BME280;10573;50.936;6.978;2022-07-29T06:40:09;101144.34;;;21.24;45.46
20825;BME280;10573;50.936;6.978;2022-07-29T06:42:53;101147.41;;;21.49;44.89
20825;BME280;10573;50.936;6.978;2022-07-29T06:45:19;101141.44;;;20.97;45.58
20825;BME280;10573;50.936;6.978;2022-07-29T06:47:44;101127.81;;;20.67;45.97
20825;BME280;10573;50.936;6.978;2022-07-29T06:50:09;101128.97;;;20.79;45.81
20825;BME280;10573;50.936;6.978;2022-07-29T06:52:38;101139.97;;;21.01;46.04
20825;BME280;10573;50.936;6.978;2022-07-29T06:55:04;101131.59;;;20.88;45.95
20825;BME280;10573;50.936;6.978;2022-07-29T06:57:30;101124.94;;;20.82;45.61
20825;BME280;10573;50.936;6.978;2022-07-29T06:59:58;101136.53;;;20.92;46.25
20825;BME280;10573;50.936;6.978;2022-07-29T07:02:23;101138.09;;;20.73;46.31
20825;BME280;10573;50.936;6.978;2022-07-29T07:04:49;101138.22;;;20.93;46.03
20825;BME280;10573;50.936;6.978;2022-07-29T07:07:14;101138.75;;;21.17;45.61
20825;BME280;10573;50.936;6.978;2022-07-29T07:09:40;101141.69;;;21.02;45.50
20825;BME280;10573;50.936;6.978;2022-07-29T07:12:05;101136.19;;;21.16;45.82
20825;BME280;10573;50.936;6.978;2022-07-29T07:14:31;101129.25;;;21.40;45.62
20825;BME280;10573;50.936;6.978;2022-07-29T07:16:56;101127.78;;;21.44;46.69
20825;BME280;10573;50.936;6.978;2022-07-29T07:19:22;101125.78;;;21.79;45.43
20825;BME280;10573;50.936;6.978;2022-07-29T07:21:47;101122.78;;;21.81;44.80
20825;BME280;10573;50.936;6.978;2022-07-29T07:24:13;101125.13;;;21.77;44.92
20825;BME280;10573;50.936;6.978;2022-07-29T07:26:38;101120.59;;;21.56;45.31
20825;BME280;10573;50.936;6.978;2022-07-29T07:29:05;101134.72;;;21.82;45.46
20825;BME280;10573;50.936;6.978;2022-07-29T07:31:30;101135.59;;;22.09;44.20
20825;BME280;10573;50.936;6.978;2022-07-29T07:33:56;101139.84;;;21.78;44.95
20825;BME280;10573;50.936;6.978;2022-07-29T07:36:22;101141.56;;;21.86;44.52
20825;BME280;10573;50.936;6.978;2022-07-29T07:38:48;101138.81;;;21.31;45.65
20825;BME280;10573;50.936;6.978;2022-07-29T07:41:14;101124.16;;;21.43;45.38
20825;BME280;10573;50.936;6.978;2022-07-29T07:43:39;101132.19;;;21.25;45.77
20825;BME280;10573;50.936;6.978;2022-07-29T07:46:04;101132.06;;;21.46;45.98
20825;BME280;10573;50.936;6.978;2022-07-29T07:48:30;101138.97;;;21.71;45.20
20825;BME280;10573;50.936;6.978;2022-07-29T07:50:55;101137.03;;;21.71;45.70
20825;BME280;10573;50.936;6.978;2022-07-29T07:53:21;101140.69;;;21.72;45.64
20825;BME280;10573;50.936;6.978;2022-07-29T07:55:46;101145.34;;;21.58;45.70
20825;BME280;10573;50.936;6.978;2022-07-29T07:58:12;101148.25;;;21.50;45.85
20825;BME280;10573;50.936;6.978;2022-07-29T08:00:37;101146.63;;;21.69;46.11
20825;BME280;10573;50.936;6.978;2022-07-29T08:03:03;101148.31;;;21.56;46.26
20825;BME280;10573;50.936;6.978;2022-07-29T08:05:29;101145.38;;;21.71;46.32
20825;BME280;10573;50.936;6.978;2022-07-29T08:07:54;101147.50;;;21.62;46.38
20825;BME280;10573;50.936;6.978;2022-07-29T08:10:20;101137.28;;;21.76;46.53
20825;BME280;10573;50.936;6.978;2022-07-29T08:13:08;101131.72;;;21.76;46.92
20825;BME280;10573;50.936;6.978;2022-07-29T08:15:34;101136.63;;;21.61;47.58
20825;BME280;10573;50.936;6.978;2022-07-29T08:18:00;101136.25;;;21.29;48.16
20825;BME280;10573;50.936;6.978;2022-07-29T08:20:26;101127.41;;;21.05;48.96
20825;BME280;10573;50.936;6.978;2022-07-29T08:22:51;101127.34;;;21.40;48.23
20825;BME280;10573;50.936;6.978;2022-07-29T08:25:17;101140.97;;;21.35;48.82
20825;BME280;10573;50.936;6.978;2022-07-29T08:27:46;101138.56;;;21.19;49.17
20825;BME280;10573;50.936;6.978;2022-07-29T08:30:11;101127.16;;;21.42;48.35
20825;BME280;10573;50.936;6.978;2022-07-29T08:32:37;101129.63;;;21.23;48.84
20825;BME280;10573;50.936;6.978;2022-07-29T08:35:03;101124.81;;;20.97;50.05
20825;BME280;10573;50.936;6.978;2022-07-29T08:37:28;101124.63;;;21.05;50.33
20825;BME280;10573;50.936;6.978;2022-07-29T08:39:54;101127.72;;;21.24;50.25
20825;BME280;10573;50.936;6.978;2022-07-29T08:42:19;101129.13;;;21.06;50.38
20825;BME280;10573;50.936;6.978;2022-07-29T08:44:44;101124.50;;;21.27;50.44
20825;BME280;10573;50.936;6.978;2022-07-29T08:47:13;101124.75;;;21.32;50.41
20825;BME280;10573;50.936;6.978;2022-07-29T08:49:39;101109.72;;;21.61;50.45
20825;BME280;10573;50.936;6.978;2022-07-29T08:52:04;101109.75;;;21.68;48.54
20825;BME280;10573;50.936;6.978;2022-07-29T08:54:30;101115.75;;;21.78;49.17
20825;BME280;10573;50.936;6.978;2022-07-29T08:56:57;101119.16;;;22.01;48.48
20825;BME280;10573;50.936;6.978;2022-07-29T08:59:25;101121.31;;;22.05;47.53
20825;BME280;10573;50.936;6.978;2022-07-29T09:01:53;101117.69;;;22.25;46.73
20825;BME280;10573;50.936;6.978;2022-07-29T09:04:20;101119.84;;;22.36;47.58
20825;BME280;10573;50.936;6.978;2022-07-29T09:06:49;101126.22;;;22.63;46.38
20825;BME280;10573;50.936;6.978;2022-07-29T09:09:16;101127.69;;;22.73;46.79
20825;BME280;10573;50.936;6.978;2022-07-29T09:11:42;101123.19;;;22.85;46.47
20825;BME280;10573;50.936;6.978;2022-07-29T09:14:11;101124.69;;;22.74;46.42
20825;BME280;10573;50.936;6.978;2022-07-29T09:16:56;101120.75;;;23.09;45.96
20825;BME280;10573;50.936;6.978;2022-07-29T09:19:33;101123.06;;;23.25;45.10
20825;BME280;10573;50.936;6.978;2022-07-29T09:22:01;101118.94;;;23.41;45.14
20825;BME280;10573;50.936;6.978;2022-07-29T09:24:46;101119.56;;;23.43;45.23
20825;BME280;10573;50.936;6.978;2022-07-29T09:27:21;101125.19;;;23.30;45.31
20825;BME280;10573;50.936;6.978;2022-07-29T09:29:55;101132.38;;;23.44;45.72
20825;BME280;10573;50.936;6.978;2022-07-29T09:32:22;101127.28;;;23.41;45.22
20825;BME280;10573;50.936;6.978;2022-07-29T09:34:47;101125.56;;;23.40;46.02
20825;BME280;10573;50.936;6.978;2022-07-29T09:37:25;101130.78;;;23.62;46.44
20825;BME280;10573;50.936;6.978;2022-07-29T09:39:51;101115.56;;;24.03;46.11
20825;BME280;10573;50.936;6.978;2022-07-29T09:42:27;101121.84;;;24.42;45.47
20825;BME280;10573;50.936;6.978;2022-07-29T09:44:53;101124.47;;;24.37;45.64
20825;BME280;10573;50.936;6.978;2022-07-29T09:47:19;101125.59;;;24.55;44.84
20825;BME280;10573;50.936;6.978;2022-07-29T09:49:56;101132.44;;;24.08;46.30
20825;BME280;10573;50.936;6.978;2022-07-29T09:52:29;101132.88;;;23.35;48.23
20825;BME280;10573;50.936;6.978;2022-07-29T09:55:09;101128.66;;;23.64;47.61
20825;BME280;10573;50.936;6.978;2022-07-29T09:57:35;101130.00;;;23.87;47.13
20825;BME280;10573;50.936;6.978;2022-07-29T10:00:04;101135.97;;;23.97;46.56
20825;BME280;10573;50.936;6.978;2022-07-29T10:02:35;101145.06;;;23.72;46.42
20825;BME280;10573;50.936;6.978;2022-07-29T10:05:03;101140.63;;;23.65;47.01
20825;BME280;10573;50.936;6.978;2022-07-29T10:07:47;101137.19;;;23.69;46.78
20825;BME280;10573;50.936;6.978;2022-07-29T10:10:33;101131.34;;;23.77;46.97
20825;BME280;10573;50.936;6.978;2022-07-29T10:13:07;101124.06;;;23.76;46.62
20825;BME280;10573;50.936;6.978;2022-07-29T10:15:36;101131.81;;;23.74;46.42
20825;BME280;10573;50.936;6.978;2022-07-29T10:18:04;101135.31;;;23.95;46.19
20825;BME280;10573;50.936;6.978;2022-07-29T10:20:30;101132.25;;;24.03;45.67
20825;BME280;10573;50.936;6.978;2022-07-29T10:22:55;101130.47;;;23.84;45.93
20825;BME280;10573;50.936;6.978;2022-07-29T10:25:22;101120.06;;;24.04;45.94
20825;BME280;10573;50.936;6.978;2022-07-29T10:27:48;101131.50;;;24.21;45.54
20825;BME280;10573;50.936;6.978;2022-07-29T10:30:17;101135.91;;;24.29;45.47
20825;BME280;10573;50.936;6.978;2022-07-29T10:35:44;101134.59;;;24.06;45.83
20825;BME280;10573;50.936;6.978;2022-07-29T10:41:16;101129.78;;;24.20;45.41
20825;BME280;10573;50.936;6.978;2022-07-29T10:43:59;101130.69;;;24.39;44.89
20825;BME280;10573;50.936;6.978;2022-07-29T10:46:27;101135.81;;;24.61;45.36
20825;BME280;10573;50.936;6.978;2022-07-29T10:49:15;101133.56;;;24.95;44.04
20825;BME280;10573;50.936;6.978;2022-07-29T10:54:17;101137.59;;;24.99;43.42
20825;BME280;10573;50.936;6.978;2022-07-29T10:56:42;101125.50;;;26.03;42.36
20825;BME280;10573;50.936;6.978;2022-07-29T11:01:49;101113.28;;;27.69;38.29
20825;BME280;10573;50.936;6.978;2022-07-29T11:04:15;101114.78;;;27.19;38.99
20825;BME280;10573;50.936;6.978;2022-07-29T11:09:33;101105.44;;;28.51;36.11
20825;BME280;10573;50.936;6.978;2022-07-29T11:11:58;101108.28;;;28.34;36.01
20825;BME280;10573;50.936;6.978;2022-07-29T11:17:17;101105.78;;;28.93;34.81
20825;BME280;10573;50.936;6.978;2022-07-29T11:19:42;101106.22;;;29.52;34.54
20825;BME280;10573;50.936;6.978;2022-07-29T11:22:09;101099.84;;;28.90;34.77
20825;BME280;10573;50.936;6.978;2022-07-29T11:24:35;101096.72;;;29.08;35.29
20825;BME280;10573;50.936;6.978;2022-07-29T11:27:19;101111.84;;;29.07;35.12
20825;BME280;10573;50.936;6.978;2022-07-29T11:29:56;101095.84;;;28.46;34.31
20825;BME280;10573;50.936;6.978;2022-07-29T11:32:24;101096.13;;;29.78;32.81
20825;BME280;10573;50.936;6.978;2022-07-29T11:35:14;101088.53;;;30.06;32.34
20825;BME280;10573;50.936;6.978;2022-07-29T11:37:40;101093.28;;;30.86;32.19
20825;BME280;10573;50.936;6.978;2022-07-29T11:45:21;101091.09;;;30.93;30.39
20825;BME280;10573;50.936;6.978;2022-07-29T11:47:49;101084.66;;;31.82;30.03
20825;BME280;10573;50.936;6.978;2022-07-29T11:50:17;101088.00;;;31.63;29.78
20825;BME280;10573;50.936;6.978;2022-07-29T11:52:45;101088.50;;;32.84;28.60
20825;BME280;10573;50.936;6.978;2022-07-29T11:55:17;101089.09;;;30.88;30.94
20825;BME280;10573;50.936;6.978;2022-07-29T11:57:58;101091.03;;;31.46;31.22
20825;BME280;10573;50.936;6.978;2022-07-29T12:00:31;101085.19;;;32.09;30.06
20825;BME280;10573;50.936;6.978;2022-07-29T12:03:00;101089.13;;;31.67;28.77
20825;BME280;10573;50.936;6.978;2022-07-29T12:05:42;101096.19;;;29.56;32.29
20825;BME280;10573;50.936;6.978;2022-07-29T12:08:13;101097.38;;;29.87;32.82
20825;BME280;10573;50.936;6.978;2022-07-29T12:10:40;101088.53;;;30.43;31.97
20825;BME280;10573;50.936;6.978;2022-07-29T12:13:06;101086.06;;;30.15;32.49
20825;BME280;10573;50.936;6.978;2022-07-29T12:15:33;101085.94;;;30.74;31.39
20825;BME280;10573;50.936;6.978;2022-07-29T12:17:58;101094.72;;;29.26;32.33
20825;BME280;10573;50.936;6.978;2022-07-29T12:20:28;101098.56;;;29.42;32.45
20825;BME280;10573;50.936;6.978;2022-07-29T12:22:55;101097.72;;;28.97;32.24
20825;BME280;10573;50.936;6.978;2022-07-29T12:25:22;101092.78;;;27.97;33.04
20825;BME280;10573;50.936;6.978;2022-07-29T12:27:58;101093.81;;;28.25;33.58
20825;BME280;10573;50.936;6.978;2022-07-29T12:30:35;101098.56;;;28.75;32.31
20825;BME280;10573;50.936;6.978;2022-07-29T12:33:00;101096.63;;;29.42;30.95
20825;BME280;10573;50.936;6.978;2022-07-29T12:35:26;101085.84;;;29.12;31.27
20825;BME280;10573;50.936;6.978;2022-07-29T12:37:52;101093.63;;;29.82;30.14
20825;BME280;10573;50.936;6.978;2022-07-29T12:40:20;101102.34;;;29.08;31.19
20825;BME280;10573;50.936;6.978;2022-07-29T12:43:15;101096.41;;;29.05;30.93
20825;BME280;10573;50.936;6.978;2022-07-29T12:45:43;101096.91;;;28.23;31.99
20825;BME280;10573;50.936;6.978;2022-07-29T12:48:10;101090.53;;;30.10;28.98
20825;BME280;10573;50.936;6.978;2022-07-29T12:50:56;101089.66;;;29.77;29.37
20825;BME280;10573;50.936;6.978;2022-07-29T12:53:22;101087.06;;;30.73;28.42
20825;BME280;10573;50.936;6.978;2022-07-29T12:55:51;101086.50;;;29.41;30.17
20825;BME280;10573;50.936;6.978;2022-07-29T12:58:36;101074.94;;;31.31;27.13
20825;BME280;10573;50.936;6.978;2022-07-29T13:01:09;101076.03;;;31.15;27.60
20825;BME280;10573;50.936;6.978;2022-07-29T13:03:52;101077.81;;;30.40;28.25
20825;BME280;10573;50.936;6.978;2022-07-29T13:09:18;101068.09;;;31.11;27.65
20825;BME280;10573;50.936;6.978;2022-07-29T13:11:46;101071.84;;;30.69;28.22
20825;BME280;10573;50.936;6.978;2022-07-29T13:14:29;101077.94;;;30.18;28.91
20825;BME280;10573;50.936;6.978;2022-07-29T13:17:08;101074.50;;;31.75;26.96
20825;BME280;10573;50.936;6.978;2022-07-29T13:22:00;101072.22;;;31.67;26.84
20825;BME280;10573;50.936;6.978;2022-07-29T13:24:25;101072.22;;;31.83;28.01
20825;BME280;10573;50.936;6.978;2022-07-29T13:26:50;101082.28;;;31.42;27.64
20825;BME280;10573;50.936;6.978;2022-07-29T13:29:17;101076.28;;;30.22;28.05
20825;BME280;10573;50.936;6.978;2022-07-29T13:31:42;101071.09;;;31.63;27.37
20825;BME280;10573;50.936;6.978;2022-07-29T13:34:07;101062.97;;;33.15;25.05